createdAt,value
2023-03-21T00:01:48.985Z,95396.00
2023-03-21T08:36:31.458Z,95267.00
2023-03-21T08:40:31.451Z,95263.00
2023-03-21T08:44:31.994Z,95261.00
2023-03-21T08:48:32.441Z,95265.00
2023-03-21T08:52:31.939Z,95263.00
2023-03-21T08:56:32.013Z,95259.00
2023-03-21T09:00:31.937Z,95261.00
2023-03-21T09:04:32.003Z,95261.00
2023-03-21T09:08:32.440Z,95253.00
2023-03-21T09:12:32.488Z,95251.00
2023-03-21T09:16:32.561Z,95249.00
2023-03-21T09:20:32.468Z,95249.00
2023-03-21T09:24:33.478Z,95249.00
2023-03-21T09:28:32.478Z,95247.00
2023-03-21T09:32:32.467Z,95245.00
2023-03-21T09:36:32.503Z,95237.00
2023-03-21T09:40:32.478Z,95235.00
2023-03-21T09:44:32.334Z,95231.00
2023-03-21T09:48:32.731Z,95229.00
2023-03-21T09:52:32.536Z,95219.00
2023-03-21T09:56:32.485Z,95214.00
2023-03-21T10:00:33.036Z,95208.00
2023-03-21T10:04:32.592Z,95204.00
2023-03-21T10:08:32.472Z,95202.00
2023-03-21T10:12:33.018Z,95198.00
2023-03-21T10:16:32.682Z,95192.00
2023-03-21T10:20:32.988Z,95186.00
2023-03-21T10:28:46.189Z,95178.00
2023-03-21T10:32:32.534Z,95178.00
2023-03-21T10:36:32.238Z,95176.00
2023-03-21T10:40:34.244Z,95173.00
2023-03-21T10:44:31.928Z,95171.00
2023-03-21T10:48:32.174Z,95175.00
2023-03-21T10:52:31.990Z,95173.00
2023-03-21T10:56:31.480Z,95171.00
2023-03-21T11:00:31.509Z,95167.00
2023-03-21T11:04:31.525Z,95165.00
2023-03-21T11:08:30.985Z,95165.00
2023-03-21T11:12:30.991Z,95153.00
2023-03-21T11:16:31.077Z,95145.00
2023-03-21T11:20:31.012Z,95141.00
2023-03-21T11:24:30.746Z,95139.00
2023-03-21T11:28:30.996Z,95133.00
2023-03-21T11:32:31.009Z,95125.00
2023-03-21T11:36:31.031Z,95116.00
2023-03-21T11:40:30.998Z,95108.00
2023-03-21T11:44:31.004Z,95104.00
2023-03-21T11:48:31.015Z,95102.00
2023-03-21T11:52:32.484Z,95098.00
2023-03-21T11:56:31.009Z,95094.00
2023-03-21T12:00:30.503Z,95088.00
2023-03-21T12:04:30.304Z,95082.00
2023-03-21T12:08:30.551Z,95073.00
2023-03-21T12:12:38.724Z,95069.00
2023-03-21T12:16:30.059Z,95061.00
2023-03-21T12:20:30.021Z,95057.00
2023-03-21T12:24:30.039Z,95047.00
2023-03-21T12:28:33.074Z,95045.00
2023-03-21T12:32:30.389Z,95035.00
2023-03-21T12:36:29.523Z,95029.00
2023-03-21T12:40:29.261Z,95023.00
2023-03-21T12:44:29.528Z,95021.00
2023-03-21T12:48:29.398Z,95018.00
2023-03-21T12:52:29.019Z,95010.00
2023-03-21T12:56:28.955Z,95012.00
2023-03-21T13:00:29.050Z,95002.00
2023-03-21T13:04:29.066Z,94998.00
2023-03-21T13:08:29.029Z,94990.00
2023-03-21T13:12:29.142Z,94978.00
2023-03-21T13:16:29.600Z,94980.00
2023-03-21T13:20:29.556Z,94980.00
2023-03-21T13:24:30.033Z,94978.00
2023-03-21T13:28:30.153Z,94976.00
2023-03-21T13:32:30.071Z,94982.00
2023-03-21T13:36:29.797Z,94976.00
2023-03-21T13:40:30.037Z,94969.00
2023-03-21T13:44:30.779Z,94963.00
2023-03-21T13:48:30.570Z,94961.00
2023-03-21T13:52:31.050Z,94957.00
2023-03-21T13:56:31.052Z,94949.00
2023-03-21T14:00:31.411Z,94949.00
2023-03-21T14:04:42.132Z,94945.00
2023-03-21T14:08:37.091Z,94941.00
2023-03-21T14:12:30.551Z,94939.00
2023-03-21T14:16:30.674Z,94939.00
2023-03-21T14:20:30.601Z,94937.00
2023-03-21T14:24:30.591Z,94933.00
2023-03-21T14:28:30.588Z,94926.00
2023-03-21T14:32:30.204Z,94926.00
2023-03-21T14:36:30.371Z,94918.00
2023-03-21T14:40:29.954Z,94914.00
2023-03-21T14:44:31.067Z,94908.00
2023-03-21T14:48:30.106Z,94912.00
2023-03-21T14:52:29.978Z,94910.00
2023-03-21T14:56:30.071Z,94908.00
2023-03-21T15:00:30.075Z,94908.00
2023-03-21T15:04:30.202Z,94908.00
2023-03-21T15:08:30.145Z,94904.00
2023-03-21T15:12:30.075Z,94892.00
2023-03-21T15:16:29.624Z,94884.00
2023-03-21T15:20:29.810Z,94886.00
2023-03-21T15:24:30.585Z,94886.00
2023-03-21T15:28:30.140Z,94884.00
2023-03-21T15:32:30.587Z,94882.00
2023-03-21T15:36:31.207Z,94884.00
2023-03-21T15:40:33.606Z,94881.00
2023-03-21T15:44:31.101Z,94877.00
2023-03-21T15:48:31.091Z,94877.00
2023-03-21T15:52:31.219Z,94877.00
2023-03-21T15:56:30.639Z,94879.00
2023-03-21T16:00:31.147Z,94879.00
2023-03-21T16:04:31.115Z,94881.00
2023-03-21T16:08:30.786Z,94881.00
2023-03-21T16:12:31.107Z,94882.00
2023-03-21T16:16:31.164Z,94881.00
2023-03-21T16:20:31.653Z,94882.00
2023-03-21T16:24:32.130Z,94886.00
2023-03-21T16:28:32.102Z,94890.00
2023-03-21T16:32:31.670Z,94890.00
2023-03-21T16:36:31.846Z,94890.00
2023-03-21T16:40:32.127Z,94894.00
2023-03-21T16:44:32.608Z,94892.00
2023-03-21T16:48:32.365Z,94894.00
2023-03-21T16:52:32.503Z,94892.00
2023-03-21T16:56:32.689Z,94892.00
2023-03-21T17:00:32.824Z,94894.00
2023-03-21T17:04:32.989Z,94896.00
2023-03-21T17:08:33.171Z,94896.00
2023-03-21T17:12:33.355Z,94904.00
2023-03-21T17:16:33.541Z,94904.00
2023-03-21T17:20:33.647Z,94908.00
2023-03-21T17:24:33.824Z,94912.00
2023-03-21T17:28:34.035Z,94916.00
2023-03-21T17:32:34.167Z,94920.00
2023-03-21T17:36:34.632Z,94920.00
2023-03-21T17:40:34.607Z,94922.00
2023-03-21T17:44:34.763Z,94926.00
2023-03-21T17:48:34.667Z,94931.00
2023-03-21T17:52:34.599Z,94929.00
2023-03-21T17:56:34.553Z,94931.00
2023-03-21T18:00:34.480Z,94935.00
2023-03-21T18:04:35.176Z,94935.00
2023-03-21T18:08:34.643Z,94937.00
2023-03-21T18:12:34.275Z,94941.00
2023-03-21T18:16:34.501Z,94945.00
2023-03-21T18:20:51.326Z,94953.00
2023-03-21T18:24:34.310Z,94951.00
2023-03-21T18:28:34.471Z,94955.00
2023-03-21T18:32:34.370Z,94959.00
2023-03-21T18:36:34.845Z,94957.00
2023-03-21T18:40:34.110Z,94967.00
2023-03-21T18:44:34.160Z,94969.00
2023-03-21T18:48:35.479Z,94969.00
2023-03-21T18:52:34.265Z,94969.00
2023-03-21T18:57:23.649Z,94969.00
2023-03-21T19:00:34.289Z,94971.00
2023-03-21T19:04:34.235Z,94971.00
2023-03-21T19:08:34.165Z,94974.00
2023-03-21T19:12:34.672Z,94978.00
2023-03-21T19:16:50.734Z,94982.00
2023-03-21T19:20:33.943Z,94984.00
2023-03-21T19:24:34.163Z,94988.00
2023-03-21T19:28:33.811Z,94994.00
2023-03-21T19:32:33.770Z,94996.00
2023-03-21T19:36:34.780Z,94996.00
2023-03-21T19:40:33.773Z,94996.00
2023-03-21T19:44:33.775Z,95000.00
2023-03-21T19:48:33.832Z,95002.00
2023-03-21T19:52:33.796Z,95000.00
2023-03-21T19:56:34.822Z,95000.00
2023-03-21T20:00:33.772Z,94998.00
2023-03-21T20:04:33.779Z,95002.00
2023-03-21T20:08:50.264Z,95006.00
2023-03-21T20:12:33.782Z,95010.00
2023-03-21T20:16:35.496Z,95016.00
2023-03-21T20:20:33.811Z,95018.00
2023-03-21T20:24:33.813Z,95020.00
2023-03-21T20:28:33.497Z,95018.00
2023-03-21T20:32:33.412Z,95021.00
2023-03-21T20:36:39.980Z,95021.00
2023-03-21T20:40:33.548Z,95020.00
2023-03-21T20:44:58.185Z,95018.00
2023-03-21T20:48:33.190Z,95023.00
2023-03-21T20:56:33.158Z,95023.00
2023-03-21T21:00:33.094Z,95023.00
2023-03-21T21:05:12.157Z,95025.00
2023-03-21T21:08:33.030Z,95025.00
2023-03-21T21:12:32.995Z,95033.00
2023-03-21T21:16:32.928Z,95035.00
2023-03-21T21:20:32.879Z,95039.00
2023-03-21T21:24:32.849Z,95041.00
2023-03-21T21:28:33.240Z,95043.00
2023-03-21T21:32:32.766Z,95039.00
2023-03-21T21:36:32.725Z,95041.00
2023-03-21T21:40:32.667Z,95045.00
2023-03-21T21:44:32.643Z,95043.00
2023-03-21T21:48:32.748Z,95039.00
2023-03-21T21:52:32.549Z,95041.00
2023-03-21T21:56:32.576Z,95039.00
2023-03-21T22:00:33.332Z,95037.00
2023-03-21T22:04:32.409Z,95043.00
2023-03-21T22:08:32.410Z,95041.00
2023-03-21T22:12:32.497Z,95045.00
2023-03-21T22:16:32.652Z,95049.00
2023-03-21T22:20:35.228Z,95053.00
2023-03-21T22:24:32.491Z,95049.00
2023-03-21T22:28:33.238Z,95043.00
2023-03-21T22:32:32.404Z,95041.00
2023-03-21T22:36:32.342Z,95041.00
2023-03-21T22:40:32.278Z,95047.00
2023-03-21T22:44:32.229Z,95049.00
2023-03-21T22:48:32.216Z,95051.00
2023-03-21T22:52:32.142Z,95049.00
2023-03-21T22:56:32.094Z,95049.00
2023-03-21T23:00:32.048Z,95045.00
2023-03-21T23:04:32.225Z,95047.00
2023-03-21T23:08:32.264Z,95051.00
2023-03-21T23:12:32.172Z,95047.00
2023-03-21T23:16:32.211Z,95053.00
2023-03-21T23:20:32.291Z,95051.00
2023-03-21T23:24:32.263Z,95049.00
2023-03-21T23:28:32.313Z,95047.00
2023-03-21T23:32:32.384Z,95051.00
2023-03-21T23:36:32.445Z,95049.00
2023-03-21T23:40:33.301Z,95049.00
2023-03-21T23:44:32.536Z,95047.00
2023-03-21T23:48:32.547Z,95051.00
2023-03-21T23:52:32.616Z,95049.00
2023-03-21T23:56:32.772Z,95053.00
